sensor_id;sensor_type;location;lat;lon;timestamp;P1;durP1;ratioP1;P2;durP2;ratioP2
18304;SDS011;9278;52.156;21.048;2022-07-29T00:01:18;18.33;;;6.20;;
18304;SDS011;9278;52.156;21.048;2022-07-29T00:03:46;12.70;;;5.68;;
18304;SDS011;9278;52.156;21.048;2022-07-29T00:06:14;9.90;;;5.18;;
18304;SDS011;9278;52.156;21.048;2022-07-29T00:08:42;10.95;;;5.72;;
18304;SDS011;9278;52.156;21.048;2022-07-29T00:11:12;13.88;;;5.40;;
18304;SDS011;9278;52.156;21.048;2022-07-29T00:13:40;16.70;;;5.60;;
18304;SDS011;9278;52.156;21.048;2022-07-29T00:16:14;12.43;;;5.70;;
18304;SDS011;9278;52.156;21.048;2022-07-29T00:18:42;11.93;;;5.65;;
18304;SDS011;9278;52.156;21.048;2022-07-29T00:21:10;14.25;;;5.85;;
18304;SDS011;9278;52.156;21.048;2022-07-29T00:23:38;11.68;;;5.85;;
18304;SDS011;9278;52.156;21.048;2022-07-29T00:26:06;10.27;;;5.85;;
18304;SDS011;9278;52.156;21.048;2022-07-29T00:28:36;12.00;;;5.60;;
18304;SDS011;9278;52.156;21.048;2022-07-29T00:31:04;19.15;;;6.28;;
18304;SDS011;9278;52.156;21.048;2022-07-29T00:33:32;10.00;;;5.32;;
18304;SDS011;9278;52.156;21.048;2022-07-29T00:36:00;13.15;;;5.53;;
18304;SDS011;9278;52.156;21.048;2022-07-29T00:38:27;13.23;;;5.15;;
18304;SDS011;9278;52.156;21.048;2022-07-29T00:40:56;19.42;;;5.63;;
18304;SDS011;9278;52.156;21.048;2022-07-29T00:43:24;14.73;;;5.88;;
18304;SDS011;9278;52.156;21.048;2022-07-29T00:45:53;14.38;;;5.95;;
18304;SDS011;9278;52.156;21.048;2022-07-29T00:48:21;10.27;;;4.65;;
18304;SDS011;9278;52.156;21.048;2022-07-29T00:50:49;11.35;;;5.28;;
18304;SDS011;9278;52.156;21.048;2022-07-29T00:53:17;15.85;;;4.78;;
18304;SDS011;9278;52.156;21.048;2022-07-29T00:55:47;9.88;;;4.90;;
18304;SDS011;9278;52.156;21.048;2022-07-29T00:58:17;12.35;;;4.68;;
18304;SDS011;9278;52.156;21.048;2022-07-29T01:00:45;13.48;;;5.28;;
18304;SDS011;9278;52.156;21.048;2022-07-29T01:03:15;11.75;;;5.40;;
18304;SDS011;9278;52.156;21.048;2022-07-29T01:05:44;15.05;;;5.00;;
18304;SDS011;9278;52.156;21.048;2022-07-29T01:08:17;12.77;;;4.82;;
18304;SDS011;9278;52.156;21.048;2022-07-29T01:10:45;8.13;;;4.78;;
18304;SDS011;9278;52.156;21.048;2022-07-29T01:13:15;13.55;;;4.63;;
18304;SDS011;9278;52.156;21.048;2022-07-29T01:15:45;11.57;;;5.00;;
18304;SDS011;9278;52.156;21.048;2022-07-29T01:18:18;12.18;;;4.80;;
18304;SDS011;9278;52.156;21.048;2022-07-29T01:20:55;9.15;;;4.32;;
18304;SDS011;9278;52.156;21.048;2022-07-29T01:24:09;11.60;;;5.18;;
18304;SDS011;9278;52.156;21.048;2022-07-29T01:26:47;15.38;;;4.45;;
18304;SDS011;9278;52.156;21.048;2022-07-29T01:29:22;9.82;;;4.50;;
18304;SDS011;9278;52.156;21.048;2022-07-29T01:32:05;10.88;;;4.13;;
18304;SDS011;9278;52.156;21.048;2022-07-29T01:34:54;9.93;;;4.00;;
18304;SDS011;9278;52.156;21.048;2022-07-29T01:37:26;10.77;;;4.60;;
18304;SDS011;9278;52.156;21.048;2022-07-29T01:39:57;9.32;;;4.22;;
18304;SDS011;9278;52.156;21.048;2022-07-29T01:42:27;10.57;;;4.18;;
18304;SDS011;9278;52.156;21.048;2022-07-29T01:45:02;11.43;;;4.25;;
18304;SDS011;9278;52.156;21.048;2022-07-29T01:47:37;11.27;;;4.68;;
18304;SDS011;9278;52.156;21.048;2022-07-29T01:50:10;9.50;;;4.45;;
18304;SDS011;9278;52.156;21.048;2022-07-29T01:52:42;10.75;;;4.25;;
18304;SDS011;9278;52.156;21.048;2022-07-29T01:55:15;14.27;;;4.28;;
18304;SDS011;9278;52.156;21.048;2022-07-29T01:57:45;9.55;;;4.07;;
18304;SDS011;9278;52.156;21.048;2022-07-29T02:00:16;8.02;;;4.20;;
18304;SDS011;9278;52.156;21.048;2022-07-29T02:02:45;10.38;;;4.05;;
18304;SDS011;9278;52.156;21.048;2022-07-29T02:05:16;9.85;;;4.65;;
18304;SDS011;9278;52.156;21.048;2022-07-29T02:07:47;10.20;;;3.85;;
18304;SDS011;9278;52.156;21.048;2022-07-29T02:10:18;10.88;;;4.00;;
18304;SDS011;9278;52.156;21.048;2022-07-29T02:12:51;9.85;;;3.88;;
18304;SDS011;9278;52.156;21.048;2022-07-29T02:15:22;10.32;;;4.20;;
18304;SDS011;9278;52.156;21.048;2022-07-29T02:17:54;7.63;;;3.75;;
18304;SDS011;9278;52.156;21.048;2022-07-29T02:20:25;6.45;;;3.25;;
18304;SDS011;9278;52.156;21.048;2022-07-29T02:22:55;7.07;;;3.63;;
18304;SDS011;9278;52.156;21.048;2022-07-29T02:25:26;9.25;;;4.93;;
18304;SDS011;9278;52.156;21.048;2022-07-29T02:28:03;12.05;;;3.88;;
18304;SDS011;9278;52.156;21.048;2022-07-29T02:30:34;10.15;;;3.88;;
18304;SDS011;9278;52.156;21.048;2022-07-29T02:33:04;10.77;;;3.75;;
18304;SDS011;9278;52.156;21.048;2022-07-29T02:35:33;7.63;;;3.88;;
18304;SDS011;9278;52.156;21.048;2022-07-29T02:38:02;8.82;;;4.13;;
18304;SDS011;9278;52.156;21.048;2022-07-29T02:40:49;7.68;;;3.90;;
18304;SDS011;9278;52.156;21.048;2022-07-29T02:43:19;6.75;;;3.72;;
18304;SDS011;9278;52.156;21.048;2022-07-29T02:45:50;8.55;;;3.58;;
18304;SDS011;9278;52.156;21.048;2022-07-29T02:48:21;6.90;;;3.72;;
18304;SDS011;9278;52.156;21.048;2022-07-29T02:50:55;8.77;;;3.95;;
18304;SDS011;9278;52.156;21.048;2022-07-29T02:53:32;10.80;;;3.85;;
18304;SDS011;9278;52.156;21.048;2022-07-29T02:56:04;7.72;;;3.83;;
18304;SDS011;9278;52.156;21.048;2022-07-29T02:58:37;6.47;;;3.97;;
18304;SDS011;9278;52.156;21.048;2022-07-29T03:01:10;6.68;;;3.65;;
18304;SDS011;9278;52.156;21.048;2022-07-29T03:03:48;10.30;;;3.25;;
18304;SDS011;9278;52.156;21.048;2022-07-29T03:06:18;5.82;;;3.47;;
18304;SDS011;9278;52.156;21.048;2022-07-29T03:09:03;11.20;;;3.55;;
18304;SDS011;9278;52.156;21.048;2022-07-29T03:11:38;6.45;;;3.55;;
18304;SDS011;9278;52.156;21.048;2022-07-29T03:14:16;8.68;;;3.83;;
18304;SDS011;9278;52.156;21.048;2022-07-29T03:16:47;8.88;;;3.30;;
18304;SDS011;9278;52.156;21.048;2022-07-29T03:19:16;8.43;;;3.40;;
18304;SDS011;9278;52.156;21.048;2022-07-29T03:21:44;6.97;;;3.47;;
18304;SDS011;9278;52.156;21.048;2022-07-29T03:24:23;8.80;;;3.50;;
18304;SDS011;9278;52.156;21.048;2022-07-29T03:26:57;7.70;;;3.45;;
18304;SDS011;9278;52.156;21.048;2022-07-29T03:29:26;6.18;;;3.40;;
18304;SDS011;9278;52.156;21.048;2022-07-29T03:32:01;7.75;;;3.25;;
18304;SDS011;9278;52.156;21.048;2022-07-29T03:34:34;7.32;;;3.40;;
18304;SDS011;9278;52.156;21.048;2022-07-29T03:37:03;5.93;;;3.50;;
18304;SDS011;9278;52.156;21.048;2022-07-29T03:39:33;5.43;;;3.15;;
18304;SDS011;9278;52.156;21.048;2022-07-29T03:42:06;8.07;;;3.40;;
18304;SDS011;9278;52.156;21.048;2022-07-29T03:44:38;9.20;;;3.63;;
18304;SDS011;9278;52.156;21.048;2022-07-29T03:47:08;9.05;;;3.53;;
18304;SDS011;9278;52.156;21.048;2022-07-29T03:49:38;5.85;;;3.30;;
18304;SDS011;9278;52.156;21.048;2022-07-29T03:52:08;6.53;;;3.50;;
18304;SDS011;9278;52.156;21.048;2022-07-29T03:54:36;6.30;;;3.45;;
18304;SDS011;9278;52.156;21.048;2022-07-29T03:57:05;5.80;;;3.30;;
18304;SDS011;9278;52.156;21.048;2022-07-29T03:59:34;6.40;;;3.08;;
18304;SDS011;9278;52.156;21.048;2022-07-29T04:02:03;7.93;;;3.30;;
18304;SDS011;9278;52.156;21.048;2022-07-29T04:04:34;8.90;;;3.50;;
18304;SDS011;9278;52.156;21.048;2022-07-29T04:07:03;5.53;;;3.00;;
18304;SDS011;9278;52.156;21.048;2022-07-29T04:09:31;9.02;;;3.55;;
18304;SDS011;9278;52.156;21.048;2022-07-29T04:11:59;9.88;;;3.33;;
18304;SDS011;9278;52.156;21.048;2022-07-29T04:14:30;8.57;;;2.75;;
18304;SDS011;9278;52.156;21.048;2022-07-29T04:16:59;4.35;;;3.25;;
18304;SDS011;9278;52.156;21.048;2022-07-29T04:19:27;5.13;;;3.33;;
18304;SDS011;9278;52.156;21.048;2022-07-29T04:21:57;6.28;;;3.30;;
18304;SDS011;9278;52.156;21.048;2022-07-29T04:24:26;6.18;;;3.13;;
18304;SDS011;9278;52.156;21.048;2022-07-29T04:26:55;9.00;;;4.35;;
18304;SDS011;9278;52.156;21.048;2022-07-29T04:29:23;7.85;;;3.38;;
18304;SDS011;9278;52.156;21.048;2022-07-29T04:31:51;7.18;;;3.30;;
18304;SDS011;9278;52.156;21.048;2022-07-29T04:34:19;7.18;;;3.08;;
18304;SDS011;9278;52.156;21.048;2022-07-29T04:36:47;7.53;;;3.10;;
18304;SDS011;9278;52.156;21.048;2022-07-29T04:39:17;5.93;;;2.85;;
18304;SDS011;9278;52.156;21.048;2022-07-29T04:41:48;5.43;;;2.55;;
18304;SDS011;9278;52.156;21.048;2022-07-29T04:44:20;4.70;;;2.80;;
18304;SDS011;9278;52.156;21.048;2022-07-29T04:46:54;6.50;;;2.90;;
18304;SDS011;9278;52.156;21.048;2022-07-29T04:49:23;5.40;;;2.67;;
18304;SDS011;9278;52.156;21.048;2022-07-29T04:51:52;5.88;;;2.63;;
18304;SDS011;9278;52.156;21.048;2022-07-29T04:54:22;9.43;;;2.50;;
18304;SDS011;9278;52.156;21.048;2022-07-29T04:56:51;5.30;;;2.40;;
18304;SDS011;9278;52.156;21.048;2022-07-29T04:59:19;6.28;;;2.60;;
18304;SDS011;9278;52.156;21.048;2022-07-29T05:01:47;7.68;;;3.00;;
18304;SDS011;9278;52.156;21.048;2022-07-29T05:04:16;5.60;;;2.92;;
18304;SDS011;9278;52.156;21.048;2022-07-29T05:06:45;6.68;;;2.95;;
18304;SDS011;9278;52.156;21.048;2022-07-29T05:09:13;6.13;;;2.85;;
18304;SDS011;9278;52.156;21.048;2022-07-29T05:11:42;8.35;;;2.63;;
18304;SDS011;9278;52.156;21.048;2022-07-29T05:14:10;5.30;;;2.63;;
18304;SDS011;9278;52.156;21.048;2022-07-29T05:16:39;5.70;;;2.85;;
18304;SDS011;9278;52.156;21.048;2022-07-29T05:19:08;6.32;;;2.60;;
18304;SDS011;9278;52.156;21.048;2022-07-29T05:21:40;4.90;;;2.35;;
18304;SDS011;9278;52.156;21.048;2022-07-29T05:24:08;7.82;;;2.35;;
18304;SDS011;9278;52.156;21.048;2022-07-29T05:26:36;10.48;;;2.20;;
18304;SDS011;9278;52.156;21.048;2022-07-29T05:29:06;5.68;;;1.92;;
18304;SDS011;9278;52.156;21.048;2022-07-29T05:31:54;4.93;;;1.90;;
18304;SDS011;9278;52.156;21.048;2022-07-29T05:34:22;8.95;;;2.30;;
18304;SDS011;9278;52.156;21.048;2022-07-29T05:36:51;5.55;;;1.85;;
18304;SDS011;9278;52.156;21.048;2022-07-29T05:39:19;6.00;;;1.92;;
18304;SDS011;9278;52.156;21.048;2022-07-29T05:42:08;4.15;;;1.80;;
18304;SDS011;9278;52.156;21.048;2022-07-29T05:44:38;8.55;;;1.63;;
18304;SDS011;9278;52.156;21.048;2022-07-29T05:47:07;6.70;;;1.88;;
18304;SDS011;9278;52.156;21.048;2022-07-29T05:49:35;7.95;;;1.80;;
18304;SDS011;9278;52.156;21.048;2022-07-29T05:52:03;6.00;;;1.70;;
18304;SDS011;9278;52.156;21.048;2022-07-29T05:54:32;3.63;;;1.60;;
18304;SDS011;9278;52.156;21.048;2022-07-29T05:57:00;4.80;;;1.70;;
18304;SDS011;9278;52.156;21.048;2022-07-29T05:59:28;5.32;;;1.48;;
18304;SDS011;9278;52.156;21.048;2022-07-29T06:01:58;2.05;;;1.63;;
18304;SDS011;9278;52.156;21.048;2022-07-29T06:04:26;9.93;;;1.45;;
18304;SDS011;9278;52.156;21.048;2022-07-29T06:06:54;3.15;;;1.40;;
18304;SDS011;9278;52.156;21.048;2022-07-29T06:09:22;6.18;;;1.50;;
18304;SDS011;9278;52.156;21.048;2022-07-29T06:11:50;3.95;;;1.50;;
18304;SDS011;9278;52.156;21.048;2022-07-29T06:14:18;3.65;;;1.50;;
18304;SDS011;9278;52.156;21.048;2022-07-29T06:16:47;3.95;;;1.48;;
18304;SDS011;9278;52.156;21.048;2022-07-29T06:19:16;3.00;;;1.50;;
18304;SDS011;9278;52.156;21.048;2022-07-29T06:21:45;2.30;;;1.10;;
18304;SDS011;9278;52.156;21.048;2022-07-29T06:24:14;3.28;;;1.40;;
18304;SDS011;9278;52.156;21.048;2022-07-29T06:26:44;5.13;;;1.63;;
18304;SDS011;9278;52.156;21.048;2022-07-29T06:29:12;1.92;;;1.30;;
18304;SDS011;9278;52.156;21.048;2022-07-29T06:31:40;3.90;;;1.30;;
18304;SDS011;9278;52.156;21.048;2022-07-29T06:34:08;2.45;;;1.13;;
18304;SDS011;9278;52.156;21.048;2022-07-29T06:36:37;4.03;;;1.20;;
18304;SDS011;9278;52.156;21.048;2022-07-29T06:39:06;4.90;;;1.23;;
18304;SDS011;9278;52.156;21.048;2022-07-29T06:41:37;2.20;;;1.20;;
18304;SDS011;9278;52.156;21.048;2022-07-29T06:44:08;4.18;;;1.35;;
18304;SDS011;9278;52.156;21.048;2022-07-29T06:46:36;3.88;;;1.80;;
18304;SDS011;9278;52.156;21.048;2022-07-29T06:49:04;6.03;;;1.15;;
18304;SDS011;9278;52.156;21.048;2022-07-29T06:51:33;1.88;;;1.23;;
18304;SDS011;9278;52.156;21.048;2022-07-29T06:54:03;7.13;;;1.77;;
18304;SDS011;9278;52.156;21.048;2022-07-29T06:56:32;10.48;;;1.35;;
18304;SDS011;9278;52.156;21.048;2022-07-29T06:59:05;6.43;;;1.30;;
18304;SDS011;9278;52.156;21.048;2022-07-29T07:01:33;6.35;;;1.40;;
18304;SDS011;9278;52.156;21.048;2022-07-29T07:04:03;4.38;;;1.55;;
18304;SDS011;9278;52.156;21.048;2022-07-29T07:06:31;2.65;;;1.17;;
18304;SDS011;9278;52.156;21.048;2022-07-29T07:09:00;9.02;;;1.30;;
18304;SDS011;9278;52.156;21.048;2022-07-29T07:11:29;4.95;;;1.20;;
18304;SDS011;9278;52.156;21.048;2022-07-29T07:13:57;4.70;;;1.58;;
18304;SDS011;9278;52.156;21.048;2022-07-29T07:16:29;2.33;;;1.25;;
18304;SDS011;9278;52.156;21.048;2022-07-29T07:18:58;4.82;;;1.70;;
18304;SDS011;9278;52.156;21.048;2022-07-29T07:21:27;6.05;;;1.45;;
18304;SDS011;9278;52.156;21.048;2022-07-29T07:23:56;4.55;;;1.20;;
18304;SDS011;9278;52.156;21.048;2022-07-29T07:26:24;5.00;;;1.45;;
18304;SDS011;9278;52.156;21.048;2022-07-29T07:28:54;6.82;;;1.30;;
18304;SDS011;9278;52.156;21.048;2022-07-29T07:31:22;5.55;;;1.00;;
18304;SDS011;9278;52.156;21.048;2022-07-29T07:33:51;5.05;;;1.30;;
18304;SDS011;9278;52.156;21.048;2022-07-29T07:36:20;6.65;;;1.08;;
18304;SDS011;9278;52.156;21.048;2022-07-29T07:38:48;2.30;;;1.20;;
18304;SDS011;9278;52.156;21.048;2022-07-29T07:41:16;5.50;;;1.20;;
18304;SDS011;9278;52.156;21.048;2022-07-29T07:43:44;7.82;;;1.63;;
18304;SDS011;9278;52.156;21.048;2022-07-29T07:46:14;6.00;;;1.50;;
18304;SDS011;9278;52.156;21.048;2022-07-29T07:48:43;3.78;;;1.50;;
18304;SDS011;9278;52.156;21.048;2022-07-29T07:51:11;5.00;;;1.20;;
18304;SDS011;9278;52.156;21.048;2022-07-29T07:53:39;6.32;;;1.38;;
18304;SDS011;9278;52.156;21.048;2022-07-29T07:56:08;5.28;;;1.40;;
18304;SDS011;9278;52.156;21.048;2022-07-29T07:58:38;4.90;;;1.42;;
18304;SDS011;9278;52.156;21.048;2022-07-29T08:01:06;5.15;;;1.30;;
18304;SDS011;9278;52.156;21.048;2022-07-29T08:03:36;3.03;;;1.00;;
18304;SDS011;9278;52.156;21.048;2022-07-29T08:06:05;7.07;;;1.40;;
18304;SDS011;9278;52.156;21.048;2022-07-29T08:08:33;4.80;;;1.05;;
18304;SDS011;9278;52.156;21.048;2022-07-29T08:11:01;3.28;;;1.30;;
18304;SDS011;9278;52.156;21.048;2022-07-29T08:13:35;2.72;;;1.40;;
18304;SDS011;9278;52.156;21.048;2022-07-29T08:16:05;3.08;;;1.30;;
18304;SDS011;9278;52.156;21.048;2022-07-29T08:18:44;4.50;;;1.50;;
18304;SDS011;9278;52.156;21.048;2022-07-29T08:21:12;5.20;;;1.40;;
18304;SDS011;9278;52.156;21.048;2022-07-29T08:23:42;4.78;;;1.00;;
18304;SDS011;9278;52.156;21.048;2022-07-29T08:26:26;4.38;;;1.40;;
18304;SDS011;9278;52.156;21.048;2022-07-29T08:28:54;2.10;;;1.15;;
18304;SDS011;9278;52.156;21.048;2022-07-29T08:31:22;3.72;;;1.30;;
18304;SDS011;9278;52.156;21.048;2022-07-29T08:33:52;3.47;;;1.30;;
18304;SDS011;9278;52.156;21.048;2022-07-29T08:36:22;4.32;;;1.25;;
18304;SDS011;9278;52.156;21.048;2022-07-29T08:38:51;3.95;;;1.30;;
18304;SDS011;9278;52.156;21.048;2022-07-29T08:41:19;4.13;;;1.20;;
18304;SDS011;9278;52.156;21.048;2022-07-29T08:43:47;4.68;;;1.30;;
18304;SDS011;9278;52.156;21.048;2022-07-29T08:46:17;8.48;;;1.45;;
18304;SDS011;9278;52.156;21.048;2022-07-29T08:48:46;2.78;;;1.10;;
18304;SDS011;9278;52.156;21.048;2022-07-29T08:51:17;4.40;;;1.20;;
18304;SDS011;9278;52.156;21.048;2022-07-29T08:53:47;5.10;;;1.10;;
18304;SDS011;9278;52.156;21.048;2022-07-29T08:56:16;4.93;;;1.30;;
18304;SDS011;9278;52.156;21.048;2022-07-29T08:58:46;2.88;;;1.17;;
18304;SDS011;9278;52.156;21.048;2022-07-29T09:01:20;5.30;;;1.30;;
18304;SDS011;9278;52.156;21.048;2022-07-29T09:04:02;2.75;;;1.02;;
18304;SDS011;9278;52.156;21.048;2022-07-29T09:06:34;3.72;;;1.30;;
18304;SDS011;9278;52.156;21.048;2022-07-29T09:09:04;2.53;;;1.20;;
18304;SDS011;9278;52.156;21.048;2022-07-29T09:11:34;4.03;;;1.15;;
18304;SDS011;9278;52.156;21.048;2022-07-29T09:14:03;3.85;;;1.20;;
18304;SDS011;9278;52.156;21.048;2022-07-29T09:16:43;3.30;;;1.25;;
18304;SDS011;9278;52.156;21.048;2022-07-29T09:19:19;3.17;;;1.20;;
18304;SDS011;9278;52.156;21.048;2022-07-29T09:21:53;6.03;;;1.40;;
18304;SDS011;9278;52.156;21.048;2022-07-29T09:24:41;6.45;;;1.25;;
18304;SDS011;9278;52.156;21.048;2022-07-29T09:27:18;12.15;;;1.52;;
18304;SDS011;9278;52.156;21.048;2022-07-29T09:29:55;7.82;;;1.30;;
18304;SDS011;9278;52.156;21.048;2022-07-29T09:32:24;4.03;;;1.40;;
18304;SDS011;9278;52.156;21.048;2022-07-29T09:37:45;8.18;;;1.15;;
18304;SDS011;9278;52.156;21.048;2022-07-29T09:40:15;5.85;;;1.15;;
18304;SDS011;9278;52.156;21.048;2022-07-29T09:42:44;7.45;;;1.20;;
18304;SDS011;9278;52.156;21.048;2022-07-29T09:45:13;2.25;;;1.10;;
18304;SDS011;9278;52.156;21.048;2022-07-29T09:47:54;3.40;;;1.00;;
18304;SDS011;9278;52.156;21.048;2022-07-29T09:50:34;6.22;;;1.30;;
18304;SDS011;9278;52.156;21.048;2022-07-29T09:56:02;4.15;;;0.90;;
18304;SDS011;9278;52.156;21.048;2022-07-29T09:58:31;2.30;;;1.08;;
18304;SDS011;9278;52.156;21.048;2022-07-29T10:01:00;6.57;;;1.10;;
18304;SDS011;9278;52.156;21.048;2022-07-29T10:03:29;6.20;;;1.10;;
18304;SDS011;9278;52.156;21.048;2022-07-29T10:06:05;5.38;;;1.10;;
18304;SDS011;9278;52.156;21.048;2022-07-29T10:08:37;1.35;;;0.80;;
18304;SDS011;9278;52.156;21.048;2022-07-29T10:11:09;5.80;;;1.13;;
18304;SDS011;9278;52.156;21.048;2022-07-29T10:13:38;1.88;;;0.95;;
18304;SDS011;9278;52.156;21.048;2022-07-29T10:16:07;4.05;;;1.08;;
18304;SDS011;9278;52.156;21.048;2022-07-29T10:18:37;6.35;;;1.00;;
18304;SDS011;9278;52.156;21.048;2022-07-29T10:21:06;4.88;;;1.17;;
18304;SDS011;9278;52.156;21.048;2022-07-29T10:23:37;3.47;;;0.90;;
18304;SDS011;9278;52.156;21.048;2022-07-29T10:26:12;5.18;;;1.00;;
18304;SDS011;9278;52.156;21.048;2022-07-29T10:28:41;2.80;;;1.02;;
18304;SDS011;9278;52.156;21.048;2022-07-29T10:31:12;4.90;;;1.27;;
18304;SDS011;9278;52.156;21.048;2022-07-29T10:33:48;5.18;;;1.20;;
18304;SDS011;9278;52.156;21.048;2022-07-29T10:36:37;1.40;;;0.95;;
18304;SDS011;9278;52.156;21.048;2022-07-29T10:39:19;5.40;;;0.80;;
18304;SDS011;9278;52.156;21.048;2022-07-29T10:42:11;4.13;;;0.90;;
18304;SDS011;9278;52.156;21.048;2022-07-29T10:44:58;5.57;;;0.98;;
18304;SDS011;9278;52.156;21.048;2022-07-29T10:47:26;2.10;;;0.88;;
18304;SDS011;9278;52.156;21.048;2022-07-29T10:49:56;1.75;;;0.70;;
18304;SDS011;9278;52.156;21.048;2022-07-29T10:55:31;2.75;;;1.10;;
18304;SDS011;9278;52.156;21.048;2022-07-29T10:58:11;4.03;;;0.95;;
18304;SDS011;9278;52.156;21.048;2022-07-29T11:00:44;3.97;;;1.10;;
18304;SDS011;9278;52.156;21.048;2022-07-29T11:06:16;3.30;;;0.90;;
18304;SDS011;9278;52.156;21.048;2022-07-29T11:11:47;3.70;;;0.90;;
18304;SDS011;9278;52.156;21.048;2022-07-29T11:14:17;4.00;;;0.90;;
18304;SDS011;9278;52.156;21.048;2022-07-29T11:16:58;3.17;;;0.95;;
18304;SDS011;9278;52.156;21.048;2022-07-29T11:19:32;2.58;;;0.82;;
18304;SDS011;9278;52.156;21.048;2022-07-29T11:22:09;3.08;;;0.90;;
18304;SDS011;9278;52.156;21.048;2022-07-29T11:24:42;3.30;;;0.80;;
18304;SDS011;9278;52.156;21.048;2022-07-29T11:27:17;3.90;;;0.90;;
18304;SDS011;9278;52.156;21.048;2022-07-29T11:29:49;3.85;;;0.80;;
18304;SDS011;9278;52.156;21.048;2022-07-29T11:32:19;1.95;;;0.90;;
18304;SDS011;9278;52.156;21.048;2022-07-29T11:34:50;2.45;;;1.00;;
18304;SDS011;9278;52.156;21.048;2022-07-29T11:37:43;1.58;;;0.88;;
18304;SDS011;9278;52.156;21.048;2022-07-29T11:40:20;2.88;;;1.08;;
18304;SDS011;9278;52.156;21.048;2022-07-29T11:42:50;2.25;;;0.85;;
18304;SDS011;9278;52.156;21.048;2022-07-29T11:45:21;3.85;;;0.90;;
18304;SDS011;9278;52.156;21.048;2022-07-29T11:48:17;2.35;;;0.90;;
18304;SDS011;9278;52.156;21.048;2022-07-29T11:50:57;1.17;;;0.63;;
18304;SDS011;9278;52.156;21.048;2022-07-29T11:53:26;17.48;;;2.10;;
18304;SDS011;9278;52.156;21.048;2022-07-29T11:55:59;1.65;;;0.90;;
18304;SDS011;9278;52.156;21.048;2022-07-29T11:58:30;5.13;;;0.90;;
18304;SDS011;9278;52.156;21.048;2022-07-29T12:00:59;2.53;;;0.93;;
18304;SDS011;9278;52.156;21.048;2022-07-29T12:03:30;2.40;;;0.77;;
18304;SDS011;9278;52.156;21.048;2022-07-29T12:06:02;3.30;;;0.82;;
18304;SDS011;9278;52.156;21.048;2022-07-29T12:08:39;4.53;;;1.00;;
18304;SDS011;9278;52.156;21.048;2022-07-29T12:11:16;1.73;;;0.90;;
18304;SDS011;9278;52.156;21.048;2022-07-29T12:13:49;1.25;;;0.80;;
18304;SDS011;9278;52.156;21.048;2022-07-29T12:16:17;4.75;;;0.80;;
18304;SDS011;9278;52.156;21.048;2022-07-29T12:18:55;2.58;;;0.95;;
18304;SDS011;9278;52.156;21.048;2022-07-29T12:21:25;2.38;;;0.77;;
18304;SDS011;9278;52.156;21.048;2022-07-29T12:23:55;2.45;;;0.88;;
18304;SDS011;9278;52.156;21.048;2022-07-29T12:26:35;2.28;;;0.90;;
18304;SDS011;9278;52.156;21.048;2022-07-29T12:29:07;3.92;;;0.90;;
18304;SDS011;9278;52.156;21.048;2022-07-29T12:31:59;1.48;;;0.70;;
18304;SDS011;9278;52.156;21.048;2022-07-29T12:34:27;5.47;;;0.73;;
18304;SDS011;9278;52.156;21.048;2022-07-29T12:36:56;2.35;;;0.80;;
18304;SDS011;9278;52.156;21.048;2022-07-29T12:39:24;3.45;;;1.00;;
18304;SDS011;9278;52.156;21.048;2022-07-29T12:41:54;2.47;;;1.00;;
18304;SDS011;9278;52.156;21.048;2022-07-29T12:44:44;2.92;;;0.90;;
18304;SDS011;9278;52.156;21.048;2022-07-29T12:47:13;1.95;;;0.93;;
18304;SDS011;9278;52.156;21.048;2022-07-29T12:49:42;1.95;;;0.90;;
18304;SDS011;9278;52.156;21.048;2022-07-29T12:52:22;1.75;;;0.80;;
18304;SDS011;9278;52.156;21.048;2022-07-29T12:54:51;4.03;;;1.00;;
18304;SDS011;9278;52.156;21.048;2022-07-29T12:57:20;6.22;;;0.70;;
18304;SDS011;9278;52.156;21.048;2022-07-29T13:00:00;4.75;;;0.90;;
18304;SDS011;9278;52.156;21.048;2022-07-29T13:02:30;5.78;;;1.40;;
18304;SDS011;9278;52.156;21.048;2022-07-29T13:04:59;3.42;;;0.80;;
18304;SDS011;9278;52.156;21.048;2022-07-29T13:07:29;1.63;;;0.88;;
18304;SDS011;9278;52.156;21.048;2022-07-29T13:10:20;2.72;;;0.73;;
18304;SDS011;9278;52.156;21.048;2022-07-29T13:13:03;2.50;;;1.17;;
18304;SDS011;9278;52.156;21.048;2022-07-29T13:15:34;6.10;;;1.10;;
18304;SDS011;9278;52.156;21.048;2022-07-29T13:18:03;4.22;;;0.90;;
18304;SDS011;9278;52.156;21.048;2022-07-29T13:20:33;2.50;;;0.90;;
18304;SDS011;9278;52.156;21.048;2022-07-29T13:23:01;7.45;;;1.20;;
18304;SDS011;9278;52.156;21.048;2022-07-29T13:25:30;1.25;;;0.75;;
18304;SDS011;9278;52.156;21.048;2022-07-29T13:27:59;3.17;;;0.82;;
18304;SDS011;9278;52.156;21.048;2022-07-29T13:30:27;5.32;;;1.13;;
18304;SDS011;9278;52.156;21.048;2022-07-29T13:32:57;3.42;;;0.70;;
18304;SDS011;9278;52.156;21.048;2022-07-29T13:35:25;1.55;;;0.85;;
18304;SDS011;9278;52.156;21.048;2022-07-29T13:37:56;2.05;;;0.70;;
18304;SDS011;9278;52.156;21.048;2022-07-29T13:40:24;6.65;;;1.00;;
18304;SDS011;9278;52.156;21.048;2022-07-29T13:42:52;2.38;;;0.90;;
18304;SDS011;9278;52.156;21.048;2022-07-29T13:45:20;1.50;;;0.88;;
18304;SDS011;9278;52.156;21.048;2022-07-29T13:47:48;3.22;;;0.90;;
18304;SDS011;9278;52.156;21.048;2022-07-29T13:50:18;6.57;;;0.85;;
18304;SDS011;9278;52.156;21.048;2022-07-29T13:52:46;1.65;;;1.00;;
18304;SDS011;9278;52.156;21.048;2022-07-29T13:55:16;4.97;;;1.25;;
18304;SDS011;9278;52.156;21.048;2022-07-29T13:57:44;2.72;;;0.90;;
18304;SDS011;9278;52.156;21.048;2022-07-29T14:00:14;9.65;;;0.98;;
18304;SDS011;9278;52.156;21.048;2022-07-29T14:02:42;3.13;;;0.95;;
18304;SDS011;9278;52.156;21.048;2022-07-29T14:05:10;4.45;;;0.93;;
18304;SDS011;9278;52.156;21.048;2022-07-29T14:07:40;1.35;;;0.90;;
18304;SDS011;9278;52.156;21.048;2022-07-29T14:10:08;2.75;;;0.93;;
18304;SDS011;9278;52.156;21.048;2022-07-29T14:12:37;4.82;;;0.82;;
18304;SDS011;9278;52.156;21.048;2022-07-29T14:15:05;1.85;;;0.70;;
18304;SDS011;9278;52.156;21.048;2022-07-29T14:17:34;2.95;;;0.90;;
18304;SDS011;9278;52.156;21.048;2022-07-29T14:20:02;4.85;;;1.08;;
18304;SDS011;9278;52.156;21.048;2022-07-29T14:22:31;3.47;;;0.90;;
18304;SDS011;9278;52.156;21.048;2022-07-29T14:25:08;2.90;;;1.00;;
18304;SDS011;9278;52.156;21.048;2022-07-29T14:27:40;3.40;;;0.82;;
18304;SDS011;9278;52.156;21.048;2022-07-29T14:30:09;3.90;;;1.00;;
18304;SDS011;9278;52.156;21.048;2022-07-29T14:32:38;3.00;;;1.00;;
18304;SDS011;9278;52.156;21.048;2022-07-29T14:35:06;2.63;;;1.00;;
18304;SDS011;9278;52.156;21.048;2022-07-29T14:37:35;4.32;;;1.00;;
18304;SDS011;9278;52.156;21.048;2022-07-29T14:40:06;2.45;;;1.00;;
18304;SDS011;9278;52.156;21.048;2022-07-29T14:42:37;9.32;;;2.53;;
18304;SDS011;9278;52.156;21.048;2022-07-29T14:45:06;6.75;;;1.60;;
18304;SDS011;9278;52.156;21.048;2022-07-29T14:47:35;3.95;;;1.13;;
18304;SDS011;9278;52.156;21.048;2022-07-29T14:50:03;5.63;;;3.33;;
18304;SDS011;9278;52.156;21.048;2022-07-29T14:52:33;2.10;;;0.90;;
18304;SDS011;9278;52.156;21.048;2022-07-29T14:55:01;5.47;;;2.05;;
18304;SDS011;9278;52.156;21.048;2022-07-29T14:57:46;2.88;;;1.33;;
18304;SDS011;9278;52.156;21.048;2022-07-29T15:00:14;4.55;;;1.17;;
18304;SDS011;9278;52.156;21.048;2022-07-29T15:02:42;4.53;;;0.90;;
18304;SDS011;9278;52.156;21.048;2022-07-29T15:05:27;9.77;;;1.02;;
18304;SDS011;9278;52.156;21.048;2022-07-29T15:07:55;2.47;;;1.10;;
18304;SDS011;9278;52.156;21.048;2022-07-29T15:10:25;2.15;;;1.00;;
18304;SDS011;9278;52.156;21.048;2022-07-29T15:12:54;1.63;;;0.85;;
18304;SDS011;9278;52.156;21.048;2022-07-29T15:15:23;4.53;;;0.93;;
18304;SDS011;9278;52.156;21.048;2022-07-29T15:17:51;1.52;;;0.90;;
18304;SDS011;9278;52.156;21.048;2022-07-29T15:20:19;4.15;;;1.08;;
18304;SDS011;9278;52.156;21.048;2022-07-29T15:22:47;2.60;;;0.93;;
18304;SDS011;9278;52.156;21.048;2022-07-29T15:25:16;1.85;;;0.90;;